Time;durP1;ratioP1;P1;durP2;ratioP2;P2;SDS_P1;SDS_P2;PMS_P1;PMS_P2;Temp;Humidity;BMP_temperature;BMP_pressure;BME280_temperature;BME280_humidity;BME280_pressure;Samples;Min_cycle;Max_cycle;Signal;HPM_P1;HPM_P2
2022/11/12 00:00:41;;;;;;;3.83;2.40;;;8.30;99.90;;;;;;5116844;28;20617;-88
2022/11/12 00:03:13;;;;;;;2.50;2.20;;;8.20;99.90;;;;;;5114775;28;20202;-89
2022/11/12 00:05:49;;;;;;;3.67;2.50;;;8.20;99.90;;;;;;5096227;28;20654;-88
2022/11/12 00:08:22;;;;;;;4.50;2.50;;;8.10;99.90;;;;;;5101168;28;20680;-88
2022/11/12 00:10:54;;;;;;;5.17;2.57;;;8.20;99.90;;;;;;5113372;28;20233;-87
2022/11/12 00:13:25;;;;;;;3.03;2.40;;;8.10;99.90;;;;;;5104891;28;20670;-88
2022/11/12 00:15:57;;;;;;;4.37;2.93;;;8.00;99.90;;;;;;5096061;28;20204;-87
2022/11/12 00:18:28;;;;;;;3.43;2.67;;;8.00;99.90;;;;;;5098546;28;20287;-88
2022/11/12 00:21:02;;;;;;;7.50;2.80;;;7.90;99.90;;;;;;5112056;28;20210;-88
2022/11/12 00:23:35;;;;;;;3.07;2.40;;;7.80;99.90;;;;;;5134131;28;20217;-88
2022/11/12 00:26:07;;;;;;;4.10;2.47;;;7.70;99.90;;;;;;5120539;28;20207;-87
2022/11/12 00:28:38;;;;;;;3.00;2.70;;;7.60;99.90;;;;;;5105898;28;20281;-89
2022/11/12 00:31:11;;;;;;;3.77;2.80;;;7.50;99.90;;;;;;5111143;28;20446;-87
2022/11/12 00:33:43;;;;;;;3.37;2.57;;;7.50;99.90;;;;;;5103226;28;20615;-88
2022/11/12 00:36:17;;;;;;;3.10;2.40;;;7.40;99.90;;;;;;5107037;28;20236;-87
2022/11/12 00:38:48;;;;;;;4.33;2.63;;;7.30;99.90;;;;;;5104805;28;20199;-86
2022/11/12 00:41:19;;;;;;;3.27;2.77;;;7.20;99.90;;;;;;5091976;28;20308;-87
2022/11/12 00:43:51;;;;;;;3.70;2.53;;;7.10;99.90;;;;;;5102296;28;20224;-88
2022/11/12 00:46:22;;;;;;;3.93;2.57;;;7.00;99.90;;;;;;5102587;28;20207;-87
2022/11/12 00:48:54;;;;;;;4.43;2.60;;;6.80;99.90;;;;;;5113048;28;20211;-92
2022/11/12 00:51:28;;;;;;;3.40;2.37;;;6.70;99.90;;;;;;5095805;28;20269;-87
2022/11/12 00:54:00;;;;;;;4.70;2.70;;;6.60;99.90;;;;;;5098156;28;20646;-91
2022/11/12 00:56:32;;;;;;;4.03;2.90;;;6.50;99.90;;;;;;5115158;28;20637;-91
2022/11/12 00:59:05;;;;;;;4.77;2.73;;;6.40;99.90;;;;;;5115100;28;20235;-91
2022/11/12 01:01:36;;;;;;;4.00;2.63;;;6.30;99.90;;;;;;5086519;28;20242;-90
2022/11/12 01:04:08;;;;;;;3.73;2.77;;;6.20;99.90;;;;;;5094858;28;20199;-92
2022/11/12 01:06:43;;;;;;;4.10;2.93;;;6.10;99.90;;;;;;5105895;28;20190;-91
2022/11/12 01:09:14;;;;;;;4.37;2.90;;;6.10;99.90;;;;;;5119693;28;20650;-89
2022/11/12 01:11:46;;;;;;;7.03;3.67;;;6.00;99.90;;;;;;5105337;28;20227;-92
2022/11/12 01:14:18;;;;;;;4.77;3.53;;;6.00;99.90;;;;;;5093295;28;20304;-92
2022/11/12 01:16:50;;;;;;;6.77;3.93;;;5.90;99.90;;;;;;5108117;28;20203;-96
2022/11/12 01:19:34;;;;;;;5.00;3.77;;;5.90;99.90;;;;;;4939978;23;10001787;-90
2022/11/12 01:22:08;;;;;;;4.93;4.03;;;5.80;99.90;;;;;;5012205;28;20217;-91
2022/11/12 01:24:39;;;;;;;5.03;3.17;;;5.80;99.90;;;;;;5013604;28;20210;-90
2022/11/12 01:27:11;;;;;;;4.97;3.17;;;5.90;99.90;;;;;;5014688;28;20214;-91
2022/11/12 01:29:42;;;;;;;3.77;3.03;;;5.90;99.90;;;;;;5012487;28;20212;-94
2022/11/12 01:32:13;;;;;;;4.20;3.37;;;5.90;99.90;;;;;;5007871;28;20233;-94
2022/11/12 01:34:44;;;;;;;3.87;2.93;;;5.90;99.90;;;;;;5008527;28;20234;-93
2022/11/12 01:37:19;;;;;;;3.93;2.80;;;6.00;99.90;;;;;;5013701;28;20669;-92
2022/11/12 01:39:50;;;;;;;4.90;2.90;;;5.90;99.90;;;;;;5013946;28;20654;-89
2022/11/12 01:42:24;;;;;;;4.93;3.00;;;5.90;99.90;;;;;;5014588;28;20272;-89
2022/11/12 01:44:56;;;;;;;8.77;3.60;;;5.90;99.90;;;;;;5003627;28;20210;-91
2022/11/12 01:47:32;;;;;;;5.50;3.33;;;5.80;99.90;;;;;;5011728;28;20245;-91
2022/11/12 01:50:18;;;;;;;5.00;3.30;;;5.90;99.90;;;;;;5011747;28;20239;-90
2022/11/12 01:52:54;;;;;;;7.03;3.30;;;5.90;99.90;;;;;;5011074;28;20323;-89
2022/11/12 01:55:29;;;;;;;4.30;2.80;;;5.90;99.90;;;;;;5012761;28;20255;-89
2022/11/12 01:58:09;;;;;;;6.07;3.10;;;5.90;99.90;;;;;;5011115;28;20209;-85
2022/11/12 02:00:42;;;;;;;4.60;3.10;;;5.80;99.90;;;;;;5013081;28;20219;-86
2022/11/12 02:03:19;;;;;;;5.63;3.20;;;5.80;99.90;;;;;;5013323;28;20838;-84
2022/11/12 02:05:54;;;;;;;4.43;3.00;;;5.80;99.90;;;;;;5011292;28;20288;-85
2022/11/12 02:08:30;;;;;;;3.67;2.47;;;5.80;99.90;;;;;;5014610;28;20212;-91
2022/11/12 02:11:13;;;;;;;5.30;2.83;;;5.80;99.90;;;;;;5011030;28;20642;-87
2022/11/12 02:14:00;;;;;;;4.63;2.93;;;5.80;99.90;;;;;;5010159;28;20257;-86
2022/11/12 02:16:34;;;;;;;5.20;2.87;;;5.80;99.90;;;;;;5004021;28;20206;-90
2022/11/12 02:19:06;;;;;;;5.00;2.93;;;5.80;99.90;;;;;;5010980;28;20303;-90
2022/11/12 02:21:40;;;;;;;5.23;3.23;;;5.80;99.90;;;;;;5016513;28;20292;-88
2022/11/12 02:24:33;;;;;;;4.93;3.00;;;5.80;99.90;;;;;;5020380;28;20219;-90
2022/11/12 02:27:06;;;;;;;4.93;3.40;;;5.70;99.90;;;;;;5014725;28;20268;-95
2022/11/12 02:29:45;;;;;;;4.27;3.10;;;5.70;99.90;;;;;;5013390;28;20296;-87
2022/11/12 02:32:16;;;;;;;4.00;3.10;;;5.70;99.90;;;;;;5014324;28;20357;-89
2022/11/12 02:34:47;;;;;;;5.97;3.00;;;5.70;99.90;;;;;;5027659;28;20351;-87
2022/11/12 02:37:20;;;;;;;4.57;3.00;;;5.60;99.90;;;;;;5030330;28;20273;-88
2022/11/12 02:39:51;;;;;;;4.50;2.80;;;5.60;99.90;;;;;;5028290;28;20214;-88
2022/11/12 02:42:22;;;;;;;38.37;17.73;;;5.50;99.90;;;;;;5011655;28;20201;-89
2022/11/12 02:44:54;;;;;;;19.57;9.00;;;5.50;99.90;;;;;;5011552;28;20256;-86
2022/11/12 02:47:25;;;;;;;6.13;4.27;;;5.40;99.90;;;;;;5011116;28;20248;-86
2022/11/12 02:49:57;;;;;;;6.07;3.40;;;5.40;99.90;;;;;;5011654;28;20296;-87
2022/11/12 02:52:31;;;;;;;6.13;3.67;;;5.40;99.90;;;;;;5015393;28;20725;-87
2022/11/12 02:55:02;;;;;;;5.53;3.17;;;5.40;99.90;;;;;;5010298;28;20234;-88
2022/11/12 02:57:33;;;;;;;4.30;2.80;;;5.40;99.90;;;;;;4998024;28;20296;-88
2022/11/12 03:00:06;;;;;;;4.33;3.00;;;5.30;99.90;;;;;;5003873;28;20244;-89
2022/11/12 03:02:41;;;;;;;4.53;3.10;;;5.30;99.90;;;;;;5006151;28;20234;-88
2022/11/12 03:05:13;;;;;;;4.83;3.13;;;5.30;99.90;;;;;;5013906;28;20216;-88
2022/11/12 03:07:48;;;;;;;4.40;2.93;;;5.30;99.90;;;;;;5011448;28;20562;-88
2022/11/12 03:10:20;;;;;;;4.50;2.90;;;5.30;99.90;;;;;;5010150;28;20209;-88
2022/11/12 03:12:51;;;;;;;3.90;2.80;;;5.30;99.90;;;;;;5007557;28;20253;-87
2022/11/12 03:15:23;;;;;;;6.70;3.40;;;5.30;99.90;;;;;;5012762;28;20241;-88
2022/11/12 03:17:54;;;;;;;4.07;3.13;;;5.30;99.90;;;;;;5012354;28;20278;-88
2022/11/12 03:20:26;;;;;;;4.77;3.33;;;5.30;99.90;;;;;;5010469;28;20670;-88
2022/11/12 03:23:02;;;;;;;4.93;3.10;;;5.20;99.90;;;;;;5014128;28;20275;-88
2022/11/12 03:25:34;;;;;;;5.53;3.40;;;5.20;99.90;;;;;;5013830;28;20749;-85
2022/11/12 03:28:08;;;;;;;4.57;3.23;;;5.20;99.90;;;;;;5008572;28;20289;-87
2022/11/12 03:30:41;;;;;;;5.40;3.80;;;5.10;99.90;;;;;;5010280;28;20292;-87
2022/11/12 03:33:16;;;;;;;5.57;3.83;;;5.10;99.90;;;;;;5005590;28;20269;-88
2022/11/12 03:35:47;;;;;;;5.40;3.60;;;5.00;99.90;;;;;;5012140;28;20212;-87
2022/11/12 03:38:20;;;;;;;7.80;3.77;;;5.00;99.90;;;;;;5012178;28;20663;-84
2022/11/12 03:40:52;;;;;;;5.77;3.63;;;5.00;99.90;;;;;;5019833;28;20289;-84
2022/11/12 03:43:23;;;;;;;9.53;4.70;;;5.00;99.90;;;;;;5029861;28;20216;-87
2022/11/12 03:45:55;;;;;;;4.97;3.40;;;5.00;99.90;;;;;;5029240;28;20229;-86
2022/11/12 03:48:26;;;;;;;5.20;3.50;;;4.90;99.90;;;;;;5023432;28;20206;-86
2022/11/12 03:51:01;;;;;;;5.03;3.60;;;4.90;99.90;;;;;;5012890;28;20230;-89
2022/11/12 03:53:34;;;;;;;6.13;3.90;;;4.90;99.90;;;;;;5011897;28;20324;-88
2022/11/12 03:56:06;;;;;;;6.00;3.80;;;4.90;99.90;;;;;;5013069;28;20292;-89
2022/11/12 03:58:38;;;;;;;6.33;3.77;;;4.80;99.90;;;;;;5011829;28;20217;-87
2022/11/12 04:01:09;;;;;;;3.73;3.23;;;4.90;99.90;;;;;;5012631;28;20320;-86
2022/11/12 04:03:40;;;;;;;6.33;3.70;;;4.90;99.90;;;;;;5011186;28;20236;-86
2022/11/12 04:09:02;;;;;;;5.97;3.30;;;5.00;99.90;;;;;;5013780;28;20240;-87
2022/11/12 04:11:34;;;;;;;5.20;3.37;;;5.00;99.90;;;;;;5013808;28;20224;-86
2022/11/12 04:14:05;;;;;;;4.63;3.10;;;5.00;99.90;;;;;;5013547;28;20245;-86
2022/11/12 04:22:16;;;;;;;34.17;15.80;;;5.20;99.90;;;;;;4666380;28;10001331;-85
2022/11/12 04:27:41;;;;;;;6.00;3.70;;;5.20;99.90;;;;;;5006918;28;20217;-87
2022/11/12 04:30:18;;;;;;;6.00;3.33;;;5.20;99.90;;;;;;5013289;28;20288;-85
2022/11/12 04:32:53;;;;;;;5.93;3.23;;;5.30;99.90;;;;;;5013438;28;20252;-89
2022/11/12 04:35:26;;;;;;;4.73;3.10;;;5.30;99.90;;;;;;5015050;28;20729;-90
2022/11/12 04:37:57;;;;;;;5.63;3.33;;;5.30;99.90;;;;;;5015244;28;20324;-89
2022/11/12 04:46:07;;;;;;;5.17;3.57;;;5.30;99.90;;;;;;5022171;28;20253;-89
2022/11/12 04:48:38;;;;;;;4.77;3.50;;;5.30;99.90;;;;;;5031730;28;20182;-88
2022/11/12 04:53:53;;;;;;;4.70;3.30;;;5.40;99.90;;;;;;4999987;28;20316;-89
2022/11/12 04:56:27;;;;;;;6.20;3.90;;;5.30;99.90;;;;;;5013482;28;20240;-88
2022/11/12 04:58:58;;;;;;;4.57;3.43;;;5.30;99.90;;;;;;5016679;28;20273;-89
2022/11/12 05:01:31;;;;;;;4.73;3.67;;;5.40;99.90;;;;;;5013625;28;20264;-88
2022/11/12 05:04:04;;;;;;;4.23;3.43;;;5.40;99.90;;;;;;5012524;28;20786;-88
2022/11/12 05:06:55;;;;;;;4.87;3.83;;;5.40;99.90;;;;;;5012989;28;20681;-87
2022/11/12 05:09:27;;;;;;;4.43;3.67;;;5.40;99.90;;;;;;4994569;28;20211;-87
2022/11/12 05:12:00;;;;;;;5.53;4.00;;;5.40;99.90;;;;;;5012391;28;20325;-87
2022/11/12 05:14:32;;;;;;;7.30;4.00;;;5.40;99.90;;;;;;5013902;28;20238;-86
2022/11/12 05:17:04;;;;;;;5.43;3.80;;;5.40;99.90;;;;;;5013623;28;20292;-87
2022/11/12 05:19:35;;;;;;;7.53;4.33;;;5.40;99.90;;;;;;5012990;28;20304;-87
2022/11/12 05:22:05;;;;;;;6.30;4.33;;;5.40;99.90;;;;;;5011849;28;20236;-87
2022/11/12 05:24:47;;;;;;;7.73;4.80;;;5.40;99.90;;;;;;5007728;28;20230;-87
2022/11/12 05:27:21;;;;;;;9.77;5.00;;;5.40;99.90;;;;;;5009524;28;20248;-86
2022/11/12 05:29:52;;;;;;;8.13;4.70;;;5.40;99.90;;;;;;5013683;28;20292;-84
2022/11/12 05:32:23;;;;;;;5.80;4.60;;;5.30;99.90;;;;;;5002444;28;20614;-86
2022/11/12 05:34:56;;;;;;;6.10;4.47;;;5.30;99.90;;;;;;4997996;28;20231;-87
2022/11/12 05:37:28;;;;;;;6.97;4.60;;;5.30;99.90;;;;;;5012979;28;20236;-87
2022/11/12 05:40:01;;;;;;;8.37;4.27;;;5.20;99.90;;;;;;5012848;28;20237;-88
2022/11/12 05:42:38;;;;;;;5.50;4.30;;;5.30;99.90;;;;;;5012570;28;20563;-86
2022/11/12 05:45:11;;;;;;;5.57;4.40;;;5.30;99.90;;;;;;5011961;28;20241;-86
2022/11/12 05:47:42;;;;;;;7.10;4.30;;;5.30;99.90;;;;;;4999721;28;20270;-87
2022/11/12 05:50:13;;;;;;;5.10;4.23;;;5.30;99.90;;;;;;5007800;28;20233;-86
2022/11/12 05:52:44;;;;;;;5.77;4.13;;;5.30;99.90;;;;;;5012070;28;20237;-87
2022/11/12 05:55:16;;;;;;;6.00;4.10;;;5.30;99.90;;;;;;5011212;28;20213;-86
2022/11/12 05:57:49;;;;;;;5.00;4.07;;;5.30;99.90;;;;;;5012930;28;20299;-85
2022/11/12 06:00:21;;;;;;;6.23;4.13;;;5.20;99.90;;;;;;5012831;28;20813;-87
2022/11/12 06:02:52;;;;;;;6.03;4.60;;;5.30;99.90;;;;;;5007358;28;20302;-87
2022/11/12 06:05:24;;;;;;;5.70;4.20;;;5.20;99.90;;;;;;5012643;28;20561;-86
2022/11/12 06:07:57;;;;;;;4.93;3.97;;;5.30;99.90;;;;;;5012080;28;20287;-87
2022/11/12 06:10:29;;;;;;;5.27;3.90;;;5.20;99.90;;;;;;4998049;28;20214;-86
2022/11/12 06:13:04;;;;;;;5.77;4.10;;;5.20;99.90;;;;;;4992562;28;20317;-91
2022/11/12 06:15:36;;;;;;;6.30;4.37;;;5.20;99.90;;;;;;5009701;28;20217;-88
2022/11/12 06:18:08;;;;;;;6.07;4.60;;;5.20;99.90;;;;;;5006911;28;21008;-88
2022/11/12 06:20:40;;;;;;;5.93;4.40;;;5.20;99.90;;;;;;5011692;28;20217;-85
2022/11/12 06:23:11;;;;;;;5.47;4.60;;;5.10;99.90;;;;;;5008327;28;20206;-86
2022/11/12 06:25:42;;;;;;;6.33;5.37;;;5.10;99.90;;;;;;4999760;28;20283;-87
2022/11/12 06:28:16;;;;;;;7.10;5.57;;;5.00;99.90;;;;;;5010676;28;20271;-86
2022/11/12 06:30:48;;;;;;;8.17;5.37;;;5.00;99.90;;;;;;5002817;28;20209;-87
2022/11/12 06:33:19;;;;;;;6.30;4.90;;;4.90;99.90;;;;;;5009944;28;20216;-86
2022/11/12 06:36:01;;;;;;;7.97;5.23;;;4.80;99.90;;;;;;5011817;28;20634;-86
2022/11/12 06:38:33;;;;;;;7.20;5.27;;;4.80;99.90;;;;;;5012027;28;20292;-86
2022/11/12 06:41:05;;;;;;;6.60;4.93;;;4.70;99.90;;;;;;5011076;28;20267;-90
2022/11/12 06:43:42;;;;;;;6.63;5.27;;;4.60;99.90;;;;;;4995563;28;20245;-85
2022/11/12 06:46:15;;;;;;;9.60;5.50;;;4.50;99.90;;;;;;5013674;28;20300;-86
2022/11/12 06:48:46;;;;;;;8.43;5.70;;;4.50;99.90;;;;;;5004785;28;20202;-86
2022/11/12 06:51:19;;;;;;;14.23;6.20;;;4.40;99.90;;;;;;5012465;28;20233;-86
2022/11/12 06:53:51;;;;;;;7.00;5.10;;;4.40;99.90;;;;;;5013913;28;20319;-88
2022/11/12 06:56:23;;;;;;;10.13;5.90;;;4.30;99.90;;;;;;5012605;28;20219;-89
2022/11/12 06:58:57;;;;;;;8.23;5.53;;;4.30;99.90;;;;;;5001855;28;20238;-89
2022/11/12 07:01:29;;;;;;;9.50;5.97;;;4.20;99.90;;;;;;5016055;28;20241;-89
2022/11/12 07:04:02;;;;;;;9.30;6.10;;;4.20;99.90;;;;;;5030573;28;20194;-87
2022/11/12 07:06:35;;;;;;;8.63;6.10;;;4.10;99.90;;;;;;5030978;28;20213;-89
2022/11/12 07:09:07;;;;;;;8.77;5.87;;;4.10;99.90;;;;;;5014398;28;20292;-89
2022/11/12 07:11:40;;;;;;;7.63;6.00;;;4.00;99.90;;;;;;5016950;28;20651;-88
2022/11/12 07:14:14;;;;;;;6.73;5.40;;;4.00;99.90;;;;;;5015683;28;20559;-88
2022/11/12 07:16:46;;;;;;;6.83;5.57;;;3.90;99.90;;;;;;5017875;28;20309;-89
2022/11/12 07:19:18;;;;;;;9.03;6.63;;;3.80;99.90;;;;;;5013951;28;20647;-88
2022/11/12 07:21:50;;;;;;;8.77;6.10;;;3.70;99.90;;;;;;5016239;28;20229;-88
2022/11/12 07:24:22;;;;;;;10.17;6.87;;;3.70;99.90;;;;;;5013206;28;20215;-89
2022/11/12 07:26:55;;;;;;;10.80;7.47;;;3.60;99.90;;;;;;5008746;28;20209;-89
2022/11/12 07:29:29;;;;;;;9.17;7.27;;;3.40;99.90;;;;;;5012719;28;20227;-89
2022/11/12 07:32:16;;;;;;;8.87;6.30;;;3.40;99.90;;;;;;5011094;28;20969;-87
2022/11/12 07:34:49;;;;;;;9.23;6.03;;;3.30;99.90;;;;;;5011976;28;20257;-89
2022/11/12 07:37:20;;;;;;;8.97;6.20;;;3.30;99.90;;;;;;5011982;28;20206;-89
2022/11/12 07:39:51;;;;;;;9.40;5.93;;;3.20;99.90;;;;;;5003628;28;20582;-89
2022/11/12 07:42:24;;;;;;;10.03;7.23;;;3.20;99.90;;;;;;5013141;28;20214;-89
2022/11/12 07:44:58;;;;;;;12.73;8.03;;;3.20;99.90;;;;;;5018546;28;20249;-89
2022/11/12 07:47:29;;;;;;;10.87;7.93;;;3.10;99.90;;;;;;5016483;28;20205;-88
2022/11/12 07:50:01;;;;;;;11.63;8.00;;;3.10;99.90;;;;;;5003225;28;20569;-89
2022/11/12 07:52:34;;;;;;;12.47;8.70;;;3.00;99.90;;;;;;5016934;28;20208;-88
2022/11/12 07:55:08;;;;;;;16.17;9.93;;;3.00;99.90;;;;;;5017490;28;20236;-88
2022/11/12 07:57:39;;;;;;;17.70;12.33;;;3.00;99.90;;;;;;5016144;28;20210;-89
2022/11/12 08:00:15;;;;;;;20.00;12.37;;;3.00;99.90;;;;;;5017818;28;20212;-89
2022/11/12 08:02:46;;;;;;;19.13;12.37;;;2.90;99.90;;;;;;5016470;28;20289;-89
2022/11/12 08:05:17;;;;;;;16.77;11.00;;;2.90;99.90;;;;;;5017152;28;20233;-89
2022/11/12 08:07:52;;;;;;;17.47;10.63;;;2.90;99.90;;;;;;5017840;28;20197;-89
2022/11/12 08:10:25;;;;;;;19.20;11.17;;;2.80;99.90;;;;;;5019170;28;20202;-88
2022/11/12 08:12:58;;;;;;;11.60;8.17;;;2.70;99.90;;;;;;5016597;28;20293;-89
2022/11/12 08:15:31;;;;;;;12.23;8.20;;;2.70;99.90;;;;;;5016760;28;20316;-89
2022/11/12 08:18:03;;;;;;;11.03;7.70;;;2.60;99.90;;;;;;5016047;28;20218;-87
2022/11/12 08:20:34;;;;;;;13.20;8.23;;;2.60;99.90;;;;;;5014189;28;20301;-89
2022/11/12 08:23:06;;;;;;;11.80;8.13;;;2.60;99.90;;;;;;5015779;28;20730;-89
2022/11/12 08:25:39;;;;;;;11.63;8.13;;;2.50;99.90;;;;;;4999676;28;20596;-88
2022/11/12 08:28:11;;;;;;;11.27;8.60;;;2.50;99.90;;;;;;5016686;28;20289;-88
2022/11/12 08:30:46;;;;;;;11.97;7.17;;;2.50;99.90;;;;;;5016423;28;20210;-88
2022/11/12 08:33:18;;;;;;;12.27;7.60;;;2.50;99.90;;;;;;5006808;28;20221;-88
2022/11/12 08:35:49;;;;;;;9.30;7.07;;;2.50;99.90;;;;;;5015681;28;20307;-89
2022/11/12 08:38:20;;;;;;;11.07;7.00;;;2.40;99.90;;;;;;5016039;28;20233;-89
2022/11/12 08:40:52;;;;;;;8.90;6.37;;;2.40;99.90;;;;;;5015538;28;20273;-88
2022/11/12 08:43:24;;;;;;;16.60;6.70;;;2.40;99.90;;;;;;5014805;28;20700;-88
2022/11/12 08:46:00;;;;;;;10.63;7.13;;;2.40;99.90;;;;;;5021782;28;20201;-90
2022/11/12 08:48:32;;;;;;;10.37;6.87;;;2.30;99.90;;;;;;5016570;28;20594;-90
2022/11/12 08:51:05;;;;;;;10.47;6.90;;;2.30;99.90;;;;;;5013580;28;20205;-89
2022/11/12 08:53:38;;;;;;;9.67;7.17;;;2.30;99.90;;;;;;5014264;28;20281;-89
2022/11/12 08:56:10;;;;;;;9.33;6.63;;;2.30;99.90;;;;;;5017116;28;20980;-87
2022/11/12 08:58:41;;;;;;;8.40;6.53;;;2.30;99.90;;;;;;5017485;28;20292;-89
2022/11/12 09:01:14;;;;;;;9.97;6.77;;;2.20;99.90;;;;;;5013998;28;20206;-89
2022/11/12 09:03:45;;;;;;;9.63;6.63;;;2.20;99.90;;;;;;5014883;28;20209;-89
2022/11/12 09:06:17;;;;;;;10.43;7.30;;;2.20;99.90;;;;;;5015261;28;20214;-90
2022/11/12 09:08:48;;;;;;;10.37;7.20;;;2.20;99.90;;;;;;5015690;28;20577;-90
2022/11/12 09:11:20;;;;;;;10.40;7.40;;;2.20;99.90;;;;;;5021875;28;20190;-88
2022/11/12 09:13:53;;;;;;;9.10;6.53;;;2.20;99.90;;;;;;5035123;28;20217;-89
2022/11/12 09:16:28;;;;;;;11.30;7.07;;;2.10;99.90;;;;;;5025697;28;20217;-89
2022/11/12 09:19:00;;;;;;;9.77;6.63;;;2.10;99.90;;;;;;5016565;28;20255;-89
2022/11/12 09:21:32;;;;;;;10.27;6.97;;;2.00;99.90;;;;;;5014255;28;20215;-89
2022/11/12 09:24:04;;;;;;;12.33;7.43;;;2.00;99.90;;;;;;4999579;28;20244;-89
2022/11/12 09:26:36;;;;;;;10.20;7.10;;;2.00;99.90;;;;;;5012547;28;20347;-88
2022/11/12 09:29:07;;;;;;;11.33;7.60;;;2.00;99.90;;;;;;5021351;28;20260;-89
2022/11/12 09:31:40;;;;;;;10.13;7.23;;;2.00;99.90;;;;;;5012450;28;20265;-89
2022/11/12 09:34:12;;;;;;;10.13;7.60;;;2.00;99.90;;;;;;5014474;28;20296;-89
2022/11/12 09:36:44;;;;;;;8.00;6.50;;;2.00;99.90;;;;;;5029863;28;20244;-89
2022/11/12 09:39:16;;;;;;;11.13;7.80;;;2.00;99.90;;;;;;5034459;28;20214;-91
2022/11/12 09:41:47;;;;;;;9.97;7.27;;;1.90;99.90;;;;;;5033492;28;20232;-90
2022/11/12 09:44:23;;;;;;;10.47;7.37;;;1.90;99.90;;;;;;5025791;28;20205;-90
2022/11/12 09:47:02;;;;;;;10.40;7.73;;;2.00;99.90;;;;;;5016698;28;20245;-90
2022/11/12 09:49:37;;;;;;;8.50;6.17;;;1.90;99.90;;;;;;5012786;28;21866;-88
2022/11/12 09:52:15;;;;;;;10.17;6.57;;;1.90;99.90;;;;;;5019291;28;20205;-89
2022/11/12 09:54:46;;;;;;;9.93;6.47;;;1.90;99.90;;;;;;5014521;28;20228;-90
2022/11/12 09:57:18;;;;;;;9.13;6.57;;;1.90;99.90;;;;;;5011157;28;20241;-89
2022/11/12 09:59:50;;;;;;;10.93;7.13;;;1.80;99.90;;;;;;5006227;28;20289;-90
2022/11/12 10:02:33;;;;;;;9.07;6.40;;;1.80;99.90;;;;;;5012988;28;20248;-89
2022/11/12 10:05:24;;;;;;;10.70;6.03;;;1.70;99.90;;;;;;5014091;28;20277;-90
2022/11/12 10:08:07;;;;;;;8.33;6.00;;;1.80;99.90;;;;;;4995322;28;20220;-90
2022/11/12 10:10:46;;;;;;;9.93;6.20;;;1.70;99.90;;;;;;5011041;28;20293;-89
2022/11/12 10:13:33;;;;;;;9.10;6.07;;;1.70;99.90;;;;;;5014388;28;20671;-89
2022/11/12 10:19:25;;;;;;;9.73;6.30;;;1.70;99.90;;;;;;5013626;28;20308;-90
2022/11/12 10:22:03;;;;;;;8.20;5.37;;;1.70;99.90;;;;;;5010765;28;20202;-90
2022/11/12 10:24:37;;;;;;;8.60;5.17;;;1.70;99.90;;;;;;5014695;28;20261;-90
2022/11/12 10:27:17;;;;;;;7.20;5.53;;;1.60;99.90;;;;;;4996547;28;20241;-89
2022/11/12 10:29:54;;;;;;;7.23;5.50;;;1.60;99.90;;;;;;5017152;28;20265;-90
2022/11/12 10:32:25;;;;;;;7.50;5.50;;;1.60;99.90;;;;;;5013582;28;20296;-90
2022/11/12 10:34:58;;;;;;;8.00;5.23;;;1.50;99.90;;;;;;5018562;28;20248;-90
2022/11/12 10:37:38;;;;;;;7.33;5.20;;;1.40;99.90;;;;;;5014836;28;20237;-89
2022/11/12 10:40:30;;;;;;;7.07;5.60;;;1.40;99.90;;;;;;5014411;28;20197;-89
2022/11/12 10:43:04;;;;;;;8.80;6.00;;;1.30;99.90;;;;;;4994610;28;20226;-89
2022/11/12 10:45:35;;;;;;;7.40;5.50;;;1.20;99.90;;;;;;4996808;28;20321;-89
2022/11/12 10:48:21;;;;;;;8.13;6.00;;;1.20;99.90;;;;;;5014523;28;20239;-89
2022/11/12 10:50:58;;;;;;;7.40;4.90;;;1.20;99.90;;;;;;5016743;28;20581;-89
2022/11/12 10:53:34;;;;;;;6.47;4.80;;;1.20;99.90;;;;;;5012146;28;20236;-89
2022/11/12 10:56:23;;;;;;;8.70;5.57;;;1.20;99.90;;;;;;4994738;28;20233;-89
2022/11/12 10:59:15;;;;;;;8.03;5.10;;;1.30;99.90;;;;;;5008115;28;20654;-90
2022/11/12 11:01:47;;;;;;;6.27;4.63;;;1.30;99.90;;;;;;5013904;28;20202;-91
2022/11/12 11:04:29;;;;;;;6.57;4.87;;;1.30;99.90;;;;;;5001009;28;20229;-89
2022/11/12 11:07:06;;;;;;;6.27;4.70;;;1.20;99.90;;;;;;4993037;28;20737;-90
2022/11/12 11:09:37;;;;;;;7.03;4.70;;;1.20;99.90;;;;;;4993620;28;20220;-92
2022/11/12 11:12:24;;;;;;;8.17;4.60;;;1.20;99.90;;;;;;4992605;28;20679;-89
2022/11/12 11:15:09;;;;;;;8.70;4.97;;;1.10;99.90;;;;;;4992706;28;20220;-90
2022/11/12 11:17:40;;;;;;;5.47;4.50;;;1.20;99.90;;;;;;4996427;28;20709;-89
2022/11/12 11:20:20;;;;;;;5.53;4.10;;;1.10;99.90;;;;;;4997874;28;20705;-89
2022/11/12 11:22:58;;;;;;;6.30;4.37;;;1.20;99.90;;;;;;5015463;28;20257;-90
2022/11/12 11:25:31;;;;;;;6.47;4.30;;;1.10;99.90;;;;;;5017123;28;20213;-90
2022/11/12 11:28:16;;;;;;;6.30;4.20;;;1.10;99.90;;;;;;5025876;28;20229;-90
2022/11/12 11:30:55;;;;;;;7.40;4.30;;;1.10;99.90;;;;;;5015200;28;20646;-90
2022/11/12 11:33:38;;;;;;;5.43;3.60;;;1.10;99.90;;;;;;5015263;28;20606;-90
2022/11/12 11:36:23;;;;;;;6.73;4.10;;;1.00;99.90;;;;;;4999131;28;20257;-90
2022/11/12 11:39:03;;;;;;;7.33;3.73;;;1.00;99.90;;;;;;4996510;28;20216;-91
2022/11/12 11:41:54;;;;;;;6.30;4.10;;;1.10;99.90;;;;;;5004983;28;20367;-90
2022/11/12 11:44:34;;;;;;;5.70;4.37;;;1.00;99.90;;;;;;5014606;28;20244;-90
2022/11/12 11:47:17;;;;;;;7.03;4.70;;;1.00;99.90;;;;;;5015557;28;20662;-92
2022/11/12 11:50:18;;;;;;;6.77;4.53;;;1.00;99.90;;;;;;5015710;28;20677;-90
2022/11/12 11:53:01;;;;;;;5.67;4.13;;;1.00;99.90;;;;;;5014478;28;20292;-91
2022/11/12 11:55:56;;;;;;;6.70;4.77;;;1.00;99.90;;;;;;4998123;28;20305;-89
2022/11/12 11:58:56;;;;;;;7.43;4.90;;;0.90;99.90;;;;;;4996648;28;20695;-91
2022/11/12 12:01:35;;;;;;;6.03;4.33;;;0.90;99.90;;;;;;4998153;28;20202;-90
2022/11/12 12:04:32;;;;;;;7.53;4.30;;;0.90;99.90;;;;;;4995923;28;20540;-91
2022/11/12 12:07:15;;;;;;;5.97;4.40;;;0.90;99.90;;;;;;4995909;28;20213;-91
2022/11/12 12:09:56;;;;;;;6.53;4.63;;;1.00;99.90;;;;;;4996724;28;20628;-90
2022/11/12 12:12:44;;;;;;;5.67;4.47;;;1.00;99.90;;;;;;4996084;28;20210;-91
2022/11/12 12:15:44;;;;;;;6.43;4.63;;;1.00;99.90;;;;;;4997400;28;20226;-90
2022/11/12 12:18:28;;;;;;;6.43;4.33;;;0.90;99.90;;;;;;5015711;28;20245;-91
2022/11/12 12:21:05;;;;;;;7.30;4.43;;;0.90;99.90;;;;;;4997343;28;20209;-90
2022/11/12 12:23:42;;;;;;;6.20;4.40;;;0.90;99.90;;;;;;4997376;28;20887;-90
2022/11/12 12:26:19;;;;;;;6.60;4.70;;;0.90;99.90;;;;;;5015106;28;20374;-90
2022/11/12 12:28:58;;;;;;;5.63;4.30;;;0.90;99.90;;;;;;5014978;28;20301;-91
2022/11/12 12:31:35;;;;;;;7.30;4.23;;;0.90;99.90;;;;;;5014001;28;20241;-90
2022/11/12 12:34:16;;;;;;;5.97;4.17;;;0.90;99.90;;;;;;5014605;28;20237;-91
2022/11/12 12:36:50;;;;;;;6.83;4.27;;;0.90;99.90;;;;;;5014739;28;20686;-89
2022/11/12 12:39:27;;;;;;;7.50;4.20;;;0.90;99.90;;;;;;5015117;28;20205;-90
2022/11/12 12:42:02;;;;;;;6.37;4.50;;;0.90;99.90;;;;;;5014195;28;20236;-91
2022/11/12 12:45:00;;;;;;;6.27;4.13;;;0.90;99.90;;;;;;5015140;28;20205;-90
2022/11/12 12:47:36;;;;;;;7.07;4.27;;;0.90;99.90;;;;;;5014600;28;20630;-90
2022/11/12 12:50:13;;;;;;;6.63;4.97;;;0.80;99.90;;;;;;5014763;28;20221;-89
2022/11/12 12:53:17;;;;;;;6.33;4.53;;;0.80;99.90;;;;;;5013841;28;20205;-90
2022/11/12 12:55:51;;;;;;;5.63;4.13;;;0.80;99.90;;;;;;4998591;28;20227;-89
2022/11/12 12:58:29;;;;;;;8.50;4.63;;;0.80;99.90;;;;;;5013804;28;20237;-90
2022/11/12 13:01:06;;;;;;;6.47;4.57;;;0.80;99.90;;;;;;5013088;28;20209;-90
2022/11/12 13:04:03;;;;;;;7.40;4.67;;;0.80;99.90;;;;;;5015220;28;20209;-90
2022/11/12 13:06:38;;;;;;;5.13;3.83;;;0.70;99.90;;;;;;5006654;28;20209;-90
2022/11/12 13:09:25;;;;;;;6.40;4.80;;;0.70;99.90;;;;;;5014631;28;20217;-91
2022/11/12 13:15:09;;;;;;;8.13;4.83;;;0.80;99.90;;;;;;5014853;28;20288;-91
2022/11/12 13:17:49;;;;;;;7.67;5.03;;;0.80;99.90;;;;;;5013082;28;20324;-91
2022/11/12 13:20:39;;;;;;;7.20;4.87;;;0.70;99.90;;;;;;5015256;28;20292;-90
2022/11/12 13:24:04;;;;;;;7.13;4.60;;;0.70;99.90;;;;;;5013923;28;20305;-90
2022/11/12 13:26:47;;;;;;;6.00;4.63;;;0.70;99.90;;;;;;5014719;28;20269;-90
2022/11/12 13:29:43;;;;;;;7.97;5.30;;;0.70;99.90;;;;;;5014578;28;20291;-89
2022/11/12 13:32:38;;;;;;;7.50;4.90;;;0.70;99.90;;;;;;4996321;28;20205;-89
2022/11/12 13:35:28;;;;;;;6.17;4.87;;;0.60;99.90;;;;;;5027563;28;20273;-90
2022/11/12 13:38:14;;;;;;;6.43;4.47;;;0.60;99.90;;;;;;5024667;28;20249;-90
2022/11/12 13:40:48;;;;;;;7.63;4.87;;;0.60;99.90;;;;;;5016778;28;20293;-91
2022/11/12 13:43:34;;;;;;;6.00;5.27;;;0.60;99.90;;;;;;5013247;28;20300;-90
2022/11/12 13:46:24;;;;;;;7.10;4.83;;;0.60;99.90;;;;;;5014041;28;20216;-90
2022/11/12 13:49:01;;;;;;;7.67;5.30;;;0.50;99.90;;;;;;4995458;28;20233;-91
2022/11/12 13:51:43;;;;;;;7.53;4.97;;;0.50;99.90;;;;;;5001224;28;20328;-90
2022/11/12 13:54:34;;;;;;;6.33;4.80;;;0.50;99.90;;;;;;5013453;28;20284;-91
2022/11/12 13:57:29;;;;;;;6.47;4.70;;;0.50;99.90;;;;;;5015869;28;20244;-90
2022/11/12 14:00:20;;;;;;;6.33;4.90;;;0.50;99.90;;;;;;5015238;28;20665;-91
2022/11/12 14:02:55;;;;;;;8.27;5.00;;;0.50;99.90;;;;;;5012952;28;20252;-91
2022/11/12 14:05:29;;;;;;;7.60;4.73;;;0.40;99.90;;;;;;5014339;28;20194;-90